sensor_id;sensor_type;location;lat;lon;timestamp;P1;durP1;ratioP1;P2;durP2;ratioP2
83127;SDS011;73148;50.988;11.034;2023-11-18T00:00:59;25.65;;;15.02;;
83127;SDS011;73148;50.988;11.034;2023-11-18T00:03:24;27.10;;;15.18;;
83127;SDS011;73148;50.988;11.034;2023-11-18T00:05:49;26.40;;;16.05;;
83127;SDS011;73148;50.988;11.034;2023-11-18T00:08:15;26.40;;;15.25;;
83127;SDS011;73148;50.988;11.034;2023-11-18T00:10:40;27.55;;;14.93;;
83127;SDS011;73148;50.988;11.034;2023-11-18T00:13:06;25.67;;;16.30;;
83127;SDS011;73148;50.988;11.034;2023-11-18T00:15:32;26.10;;;15.50;;
83127;SDS011;73148;50.988;11.034;2023-11-18T00:18:00;26.45;;;15.20;;
83127;SDS011;73148;50.988;11.034;2023-11-18T00:20:26;26.38;;;16.27;;
83127;SDS011;73148;50.988;11.034;2023-11-18T00:22:51;25.80;;;14.70;;
83127;SDS011;73148;50.988;11.034;2023-11-18T00:25:18;23.67;;;14.35;;
83127;SDS011;73148;50.988;11.034;2023-11-18T00:27:43;25.42;;;15.50;;
83127;SDS011;73148;50.988;11.034;2023-11-18T00:30:09;23.38;;;14.75;;
83127;SDS011;73148;50.988;11.034;2023-11-18T00:32:37;25.02;;;14.75;;
83127;SDS011;73148;50.988;11.034;2023-11-18T00:35:03;24.42;;;14.50;;
83127;SDS011;73148;50.988;11.034;2023-11-18T00:39:55;24.30;;;14.03;;
83127;SDS011;73148;50.988;11.034;2023-11-18T00:42:20;25.30;;;15.30;;
83127;SDS011;73148;50.988;11.034;2023-11-18T00:44:45;25.70;;;14.27;;
83127;SDS011;73148;50.988;11.034;2023-11-18T00:47:11;25.70;;;15.30;;
83127;SDS011;73148;50.988;11.034;2023-11-18T00:49:37;26.50;;;15.60;;
83127;SDS011;73148;50.988;11.034;2023-11-18T00:52:03;24.33;;;14.10;;
83127;SDS011;73148;50.988;11.034;2023-11-18T00:56:55;24.58;;;13.73;;
83127;SDS011;73148;50.988;11.034;2023-11-18T00:59:20;25.95;;;14.52;;
83127;SDS011;73148;50.988;11.034;2023-11-18T01:01:46;23.55;;;13.95;;
83127;SDS011;73148;50.988;11.034;2023-11-18T01:04:11;25.20;;;14.48;;
83127;SDS011;73148;50.988;11.034;2023-11-18T01:06:38;23.50;;;13.63;;
83127;SDS011;73148;50.988;11.034;2023-11-18T01:09:03;23.48;;;13.70;;
83127;SDS011;73148;50.988;11.034;2023-11-18T01:11:29;23.95;;;14.40;;
83127;SDS011;73148;50.988;11.034;2023-11-18T01:13:54;23.27;;;13.38;;
83127;SDS011;73148;50.988;11.034;2023-11-18T01:18:46;22.43;;;12.87;;
83127;SDS011;73148;50.988;11.034;2023-11-18T01:21:11;22.45;;;13.35;;
83127;SDS011;73148;50.988;11.034;2023-11-18T01:23:38;24.52;;;13.90;;
83127;SDS011;73148;50.988;11.034;2023-11-18T01:26:08;21.73;;;12.65;;
83127;SDS011;73148;50.988;11.034;2023-11-18T01:28:33;25.48;;;14.48;;
83127;SDS011;73148;50.988;11.034;2023-11-18T01:31:02;23.02;;;13.43;;
83127;SDS011;73148;50.988;11.034;2023-11-18T01:33:29;23.90;;;13.43;;
83127;SDS011;73148;50.988;11.034;2023-11-18T01:35:54;24.10;;;13.40;;
83127;SDS011;73148;50.988;11.034;2023-11-18T01:38:20;22.60;;;12.98;;
83127;SDS011;73148;50.988;11.034;2023-11-18T01:40:46;23.13;;;12.18;;
83127;SDS011;73148;50.988;11.034;2023-11-18T01:43:12;20.73;;;12.88;;
83127;SDS011;73148;50.988;11.034;2023-11-18T01:45:39;22.88;;;13.50;;
83127;SDS011;73148;50.988;11.034;2023-11-18T01:48:05;21.15;;;12.80;;
83127;SDS011;73148;50.988;11.034;2023-11-18T01:50:32;21.90;;;13.10;;
83127;SDS011;73148;50.988;11.034;2023-11-18T01:52:58;22.50;;;13.02;;
83127;SDS011;73148;50.988;11.034;2023-11-18T01:55:25;20.80;;;12.75;;
83127;SDS011;73148;50.988;11.034;2023-11-18T01:57:52;18.65;;;11.18;;
83127;SDS011;73148;50.988;11.034;2023-11-18T02:00:18;22.17;;;12.30;;
83127;SDS011;73148;50.988;11.034;2023-11-18T02:02:44;20.92;;;12.55;;
83127;SDS011;73148;50.988;11.034;2023-11-18T02:05:09;20.05;;;12.00;;
83127;SDS011;73148;50.988;11.034;2023-11-18T02:07:37;23.40;;;13.13;;
83127;SDS011;73148;50.988;11.034;2023-11-18T02:10:03;20.02;;;11.10;;
83127;SDS011;73148;50.988;11.034;2023-11-18T02:12:34;22.02;;;11.60;;
83127;SDS011;73148;50.988;11.034;2023-11-18T02:15:09;22.00;;;11.73;;
83127;SDS011;73148;50.988;11.034;2023-11-18T02:17:38;20.15;;;11.82;;
83127;SDS011;73148;50.988;11.034;2023-11-18T02:20:04;21.50;;;12.48;;
83127;SDS011;73148;50.988;11.034;2023-11-18T02:22:39;18.67;;;11.48;;
83127;SDS011;73148;50.988;11.034;2023-11-18T02:25:05;20.17;;;10.93;;
83127;SDS011;73148;50.988;11.034;2023-11-18T02:27:36;19.95;;;11.95;;
83127;SDS011;73148;50.988;11.034;2023-11-18T02:30:02;19.35;;;11.15;;
83127;SDS011;73148;50.988;11.034;2023-11-18T02:32:31;17.35;;;10.50;;
83127;SDS011;73148;50.988;11.034;2023-11-18T02:35:05;19.42;;;10.40;;
83127;SDS011;73148;50.988;11.034;2023-11-18T02:37:35;20.27;;;11.05;;
83127;SDS011;73148;50.988;11.034;2023-11-18T02:40:04;18.08;;;10.55;;
83127;SDS011;73148;50.988;11.034;2023-11-18T02:42:41;20.55;;;12.57;;
83127;SDS011;73148;50.988;11.034;2023-11-18T02:45:09;17.27;;;10.52;;
83127;SDS011;73148;50.988;11.034;2023-11-18T02:47:37;18.48;;;10.32;;
83127;SDS011;73148;50.988;11.034;2023-11-18T02:50:04;17.08;;;9.73;;
83127;SDS011;73148;50.988;11.034;2023-11-18T02:52:30;18.35;;;10.13;;
83127;SDS011;73148;50.988;11.034;2023-11-18T02:54:56;15.25;;;9.50;;
83127;SDS011;73148;50.988;11.034;2023-11-18T02:57:21;16.75;;;9.82;;
83127;SDS011;73148;50.988;11.034;2023-11-18T02:59:48;15.88;;;9.35;;
83127;SDS011;73148;50.988;11.034;2023-11-18T03:02:14;17.48;;;10.20;;
83127;SDS011;73148;50.988;11.034;2023-11-18T03:04:40;17.33;;;9.68;;
83127;SDS011;73148;50.988;11.034;2023-11-18T03:07:09;17.13;;;10.15;;
83127;SDS011;73148;50.988;11.034;2023-11-18T03:09:34;16.88;;;9.63;;
83127;SDS011;73148;50.988;11.034;2023-11-18T03:12:01;15.90;;;8.73;;
83127;SDS011;73148;50.988;11.034;2023-11-18T03:14:26;14.88;;;8.05;;
83127;SDS011;73148;50.988;11.034;2023-11-18T03:16:55;16.88;;;9.55;;
83127;SDS011;73148;50.988;11.034;2023-11-18T03:19:20;13.73;;;8.55;;
83127;SDS011;73148;50.988;11.034;2023-11-18T03:21:50;15.43;;;8.70;;
83127;SDS011;73148;50.988;11.034;2023-11-18T03:24:15;14.93;;;8.13;;
83127;SDS011;73148;50.988;11.034;2023-11-18T03:26:41;15.15;;;9.13;;
83127;SDS011;73148;50.988;11.034;2023-11-18T03:29:06;14.95;;;8.57;;
83127;SDS011;73148;50.988;11.034;2023-11-18T03:31:32;13.68;;;8.65;;
83127;SDS011;73148;50.988;11.034;2023-11-18T03:33:59;15.63;;;8.77;;
83127;SDS011;73148;50.988;11.034;2023-11-18T03:36:25;14.32;;;8.45;;
83127;SDS011;73148;50.988;11.034;2023-11-18T03:38:50;13.55;;;7.93;;
83127;SDS011;73148;50.988;11.034;2023-11-18T03:41:16;14.20;;;8.02;;
83127;SDS011;73148;50.988;11.034;2023-11-18T03:43:41;13.37;;;7.70;;
83127;SDS011;73148;50.988;11.034;2023-11-18T03:46:06;14.30;;;8.13;;
83127;SDS011;73148;50.988;11.034;2023-11-18T03:48:32;13.52;;;8.02;;
83127;SDS011;73148;50.988;11.034;2023-11-18T03:50:59;14.38;;;8.38;;
83127;SDS011;73148;50.988;11.034;2023-11-18T03:53:25;14.82;;;8.45;;
83127;SDS011;73148;50.988;11.034;2023-11-18T03:55:51;15.23;;;8.32;;
83127;SDS011;73148;50.988;11.034;2023-11-18T03:58:16;14.15;;;8.98;;
83127;SDS011;73148;50.988;11.034;2023-11-18T04:00:42;13.85;;;7.18;;
83127;SDS011;73148;50.988;11.034;2023-11-18T04:03:07;15.60;;;8.07;;
83127;SDS011;73148;50.988;11.034;2023-11-18T04:05:34;14.55;;;8.20;;
83127;SDS011;73148;50.988;11.034;2023-11-18T04:08:01;14.27;;;8.48;;
83127;SDS011;73148;50.988;11.034;2023-11-18T04:10:26;14.55;;;8.20;;
83127;SDS011;73148;50.988;11.034;2023-11-18T04:12:52;15.02;;;7.95;;
83127;SDS011;73148;50.988;11.034;2023-11-18T04:15:17;14.43;;;8.17;;
83127;SDS011;73148;50.988;11.034;2023-11-18T04:17:42;15.27;;;8.45;;
83127;SDS011;73148;50.988;11.034;2023-11-18T04:20:09;15.63;;;8.30;;
83127;SDS011;73148;50.988;11.034;2023-11-18T04:22:37;14.43;;;8.30;;
83127;SDS011;73148;50.988;11.034;2023-11-18T04:25:05;13.60;;;7.90;;
83127;SDS011;73148;50.988;11.034;2023-11-18T04:27:31;15.13;;;8.18;;
83127;SDS011;73148;50.988;11.034;2023-11-18T04:29:57;14.93;;;8.40;;
83127;SDS011;73148;50.988;11.034;2023-11-18T04:32:22;15.10;;;8.70;;
83127;SDS011;73148;50.988;11.034;2023-11-18T04:34:48;14.23;;;8.32;;
83127;SDS011;73148;50.988;11.034;2023-11-18T04:37:16;13.63;;;8.30;;
83127;SDS011;73148;50.988;11.034;2023-11-18T04:39:41;12.75;;;7.28;;
83127;SDS011;73148;50.988;11.034;2023-11-18T04:42:08;15.60;;;9.15;;
83127;SDS011;73148;50.988;11.034;2023-11-18T04:44:33;15.38;;;9.10;;
83127;SDS011;73148;50.988;11.034;2023-11-18T04:46:59;14.20;;;8.25;;
83127;SDS011;73148;50.988;11.034;2023-11-18T04:49:24;13.65;;;7.05;;
83127;SDS011;73148;50.988;11.034;2023-11-18T04:51:50;13.48;;;8.75;;
83127;SDS011;73148;50.988;11.034;2023-11-18T04:54:15;14.23;;;8.30;;
83127;SDS011;73148;50.988;11.034;2023-11-18T04:56:41;13.20;;;8.55;;
83127;SDS011;73148;50.988;11.034;2023-11-18T04:59:08;13.13;;;8.00;;
83127;SDS011;73148;50.988;11.034;2023-11-18T05:01:33;13.82;;;8.32;;
83127;SDS011;73148;50.988;11.034;2023-11-18T05:03:58;15.45;;;9.70;;
83127;SDS011;73148;50.988;11.034;2023-11-18T05:06:24;14.95;;;8.98;;
83127;SDS011;73148;50.988;11.034;2023-11-18T05:08:50;15.32;;;9.18;;
83127;SDS011;73148;50.988;11.034;2023-11-18T05:11:15;15.98;;;9.30;;
83127;SDS011;73148;50.988;11.034;2023-11-18T05:13:40;15.93;;;9.93;;
83127;SDS011;73148;50.988;11.034;2023-11-18T05:16:07;16.75;;;9.90;;
83127;SDS011;73148;50.988;11.034;2023-11-18T05:18:35;16.52;;;9.07;;
83127;SDS011;73148;50.988;11.034;2023-11-18T05:21:02;14.32;;;8.80;;
83127;SDS011;73148;50.988;11.034;2023-11-18T05:23:30;17.15;;;10.20;;
83127;SDS011;73148;50.988;11.034;2023-11-18T05:25:55;16.20;;;9.68;;
83127;SDS011;73148;50.988;11.034;2023-11-18T05:28:21;14.98;;;9.48;;
83127;SDS011;73148;50.988;11.034;2023-11-18T05:30:47;16.88;;;10.38;;
83127;SDS011;73148;50.988;11.034;2023-11-18T05:33:13;18.10;;;10.18;;
83127;SDS011;73148;50.988;11.034;2023-11-18T05:35:42;16.50;;;10.57;;
83127;SDS011;73148;50.988;11.034;2023-11-18T05:38:13;15.63;;;9.82;;
83127;SDS011;73148;50.988;11.034;2023-11-18T05:40:41;19.85;;;10.68;;
83127;SDS011;73148;50.988;11.034;2023-11-18T05:43:08;17.65;;;10.30;;
83127;SDS011;73148;50.988;11.034;2023-11-18T05:45:41;16.35;;;10.15;;
83127;SDS011;73148;50.988;11.034;2023-11-18T05:48:27;17.48;;;10.85;;
83127;SDS011;73148;50.988;11.034;2023-11-18T05:50:53;17.58;;;10.60;;
83127;SDS011;73148;50.988;11.034;2023-11-18T05:53:18;18.45;;;11.10;;
83127;SDS011;73148;50.988;11.034;2023-11-18T05:55:43;20.07;;;11.10;;
83127;SDS011;73148;50.988;11.034;2023-11-18T05:58:09;18.38;;;10.95;;
83127;SDS011;73148;50.988;11.034;2023-11-18T06:00:35;17.77;;;10.82;;
83127;SDS011;73148;50.988;11.034;2023-11-18T06:03:00;19.50;;;12.30;;
83127;SDS011;73148;50.988;11.034;2023-11-18T06:05:27;17.20;;;10.57;;
83127;SDS011;73148;50.988;11.034;2023-11-18T06:07:54;18.92;;;11.75;;
83127;SDS011;73148;50.988;11.034;2023-11-18T06:10:19;20.13;;;11.57;;
83127;SDS011;73148;50.988;11.034;2023-11-18T06:12:45;18.75;;;11.27;;
83127;SDS011;73148;50.988;11.034;2023-11-18T06:17:39;17.77;;;10.90;;
83127;SDS011;73148;50.988;11.034;2023-11-18T06:20:04;15.77;;;10.15;;
83127;SDS011;73148;50.988;11.034;2023-11-18T06:22:32;17.35;;;10.38;;
83127;SDS011;73148;50.988;11.034;2023-11-18T06:24:58;19.42;;;11.95;;
83127;SDS011;73148;50.988;11.034;2023-11-18T06:27:23;17.90;;;11.00;;
83127;SDS011;73148;50.988;11.034;2023-11-18T06:29:49;18.33;;;12.48;;
83127;SDS011;73148;50.988;11.034;2023-11-18T06:32:15;19.85;;;12.23;;
83127;SDS011;73148;50.988;11.034;2023-11-18T06:34:41;19.05;;;11.27;;
83127;SDS011;73148;50.988;11.034;2023-11-18T06:37:06;17.65;;;11.25;;
83127;SDS011;73148;50.988;11.034;2023-11-18T06:39:33;18.80;;;11.90;;
83127;SDS011;73148;50.988;11.034;2023-11-18T06:42:04;19.67;;;11.65;;
83127;SDS011;73148;50.988;11.034;2023-11-18T06:44:36;18.92;;;10.98;;
83127;SDS011;73148;50.988;11.034;2023-11-18T06:47:01;20.00;;;12.52;;
83127;SDS011;73148;50.988;11.034;2023-11-18T06:49:27;21.15;;;13.25;;
83127;SDS011;73148;50.988;11.034;2023-11-18T06:51:54;19.20;;;11.68;;
83127;SDS011;73148;50.988;11.034;2023-11-18T06:54:20;19.50;;;12.13;;
83127;SDS011;73148;50.988;11.034;2023-11-18T06:56:47;18.52;;;12.05;;
83127;SDS011;73148;50.988;11.034;2023-11-18T06:59:12;19.92;;;12.18;;
83127;SDS011;73148;50.988;11.034;2023-11-18T07:01:39;18.15;;;11.23;;
83127;SDS011;73148;50.988;11.034;2023-11-18T07:04:10;20.38;;;11.95;;
83127;SDS011;73148;50.988;11.034;2023-11-18T07:06:36;19.25;;;11.80;;
83127;SDS011;73148;50.988;11.034;2023-11-18T07:09:06;22.27;;;13.10;;
83127;SDS011;73148;50.988;11.034;2023-11-18T07:11:38;19.13;;;11.68;;
83127;SDS011;73148;50.988;11.034;2023-11-18T07:14:04;20.13;;;13.38;;
83127;SDS011;73148;50.988;11.034;2023-11-18T07:16:30;20.00;;;12.55;;
83127;SDS011;73148;50.988;11.034;2023-11-18T07:18:55;19.50;;;12.50;;
83127;SDS011;73148;50.988;11.034;2023-11-18T07:23:47;22.25;;;12.93;;
83127;SDS011;73148;50.988;11.034;2023-11-18T07:26:13;21.17;;;12.45;;
83127;SDS011;73148;50.988;11.034;2023-11-18T07:28:41;19.98;;;12.75;;
83127;SDS011;73148;50.988;11.034;2023-11-18T07:31:08;19.88;;;12.50;;
83127;SDS011;73148;50.988;11.034;2023-11-18T07:33:34;20.10;;;12.23;;
83127;SDS011;73148;50.988;11.034;2023-11-18T07:35:59;21.42;;;13.05;;
83127;SDS011;73148;50.988;11.034;2023-11-18T07:38:25;21.75;;;12.68;;
83127;SDS011;73148;50.988;11.034;2023-11-18T07:40:52;21.58;;;12.50;;
83127;SDS011;73148;50.988;11.034;2023-11-18T07:43:21;22.23;;;14.23;;
83127;SDS011;73148;50.988;11.034;2023-11-18T07:45:47;21.13;;;13.55;;
83127;SDS011;73148;50.988;11.034;2023-11-18T07:48:17;23.08;;;14.07;;
83127;SDS011;73148;50.988;11.034;2023-11-18T07:50:42;22.33;;;13.32;;
83127;SDS011;73148;50.988;11.034;2023-11-18T07:53:12;19.08;;;12.23;;
83127;SDS011;73148;50.988;11.034;2023-11-18T07:55:38;21.38;;;12.30;;
83127;SDS011;73148;50.988;11.034;2023-11-18T07:58:04;21.75;;;13.13;;
83127;SDS011;73148;50.988;11.034;2023-11-18T08:00:29;21.00;;;13.20;;
83127;SDS011;73148;50.988;11.034;2023-11-18T08:02:56;21.48;;;12.88;;
83127;SDS011;73148;50.988;11.034;2023-11-18T08:05:23;21.52;;;12.85;;
83127;SDS011;73148;50.988;11.034;2023-11-18T08:07:49;20.92;;;12.80;;
83127;SDS011;73148;50.988;11.034;2023-11-18T08:10:14;23.00;;;13.63;;
83127;SDS011;73148;50.988;11.034;2023-11-18T08:12:43;21.35;;;13.50;;
83127;SDS011;73148;50.988;11.034;2023-11-18T08:15:09;24.08;;;14.07;;
83127;SDS011;73148;50.988;11.034;2023-11-18T08:17:35;23.45;;;14.38;;
83127;SDS011;73148;50.988;11.034;2023-11-18T08:20:01;21.98;;;13.57;;
83127;SDS011;73148;50.988;11.034;2023-11-18T08:22:33;21.85;;;13.68;;
83127;SDS011;73148;50.988;11.034;2023-11-18T08:24:59;21.15;;;13.05;;
83127;SDS011;73148;50.988;11.034;2023-11-18T08:27:24;22.35;;;14.13;;
83127;SDS011;73148;50.988;11.034;2023-11-18T08:29:50;20.20;;;12.75;;
83127;SDS011;73148;50.988;11.034;2023-11-18T08:32:15;23.37;;;14.03;;
83127;SDS011;73148;50.988;11.034;2023-11-18T08:34:41;21.40;;;13.48;;
83127;SDS011;73148;50.988;11.034;2023-11-18T08:37:06;20.92;;;12.90;;
83127;SDS011;73148;50.988;11.034;2023-11-18T08:39:33;21.30;;;12.82;;
83127;SDS011;73148;50.988;11.034;2023-11-18T08:41:59;23.52;;;13.88;;
83127;SDS011;73148;50.988;11.034;2023-11-18T08:44:24;24.42;;;14.73;;
83127;SDS011;73148;50.988;11.034;2023-11-18T08:46:50;22.50;;;14.13;;
83127;SDS011;73148;50.988;11.034;2023-11-18T08:49:17;23.70;;;14.40;;
83127;SDS011;73148;50.988;11.034;2023-11-18T08:51:46;22.05;;;13.55;;
83127;SDS011;73148;50.988;11.034;2023-11-18T08:54:14;22.17;;;13.60;;
83127;SDS011;73148;50.988;11.034;2023-11-18T08:56:51;23.00;;;15.52;;
83127;SDS011;73148;50.988;11.034;2023-11-18T08:59:17;22.40;;;14.52;;
83127;SDS011;73148;50.988;11.034;2023-11-18T09:04:15;23.52;;;14.43;;
83127;SDS011;73148;50.988;11.034;2023-11-18T09:06:40;23.20;;;15.05;;
83127;SDS011;73148;50.988;11.034;2023-11-18T09:09:07;21.88;;;13.13;;
83127;SDS011;73148;50.988;11.034;2023-11-18T09:11:36;21.40;;;13.00;;
83127;SDS011;73148;50.988;11.034;2023-11-18T09:14:05;22.17;;;13.65;;
83127;SDS011;73148;50.988;11.034;2023-11-18T09:16:32;21.77;;;14.55;;
83127;SDS011;73148;50.988;11.034;2023-11-18T09:19:03;25.02;;;14.68;;
83127;SDS011;73148;50.988;11.034;2023-11-18T09:21:31;24.17;;;14.90;;
83127;SDS011;73148;50.988;11.034;2023-11-18T09:24:00;23.05;;;14.10;;
83127;SDS011;73148;50.988;11.034;2023-11-18T09:26:29;23.45;;;14.52;;
83127;SDS011;73148;50.988;11.034;2023-11-18T09:28:55;24.05;;;15.02;;
83127;SDS011;73148;50.988;11.034;2023-11-18T09:31:22;35.47;;;17.90;;
83127;SDS011;73148;50.988;11.034;2023-11-18T09:33:47;42.40;;;19.70;;
83127;SDS011;73148;50.988;11.034;2023-11-18T09:36:17;47.42;;;20.92;;
83127;SDS011;73148;50.988;11.034;2023-11-18T09:38:43;50.58;;;21.08;;
83127;SDS011;73148;50.988;11.034;2023-11-18T09:41:12;55.05;;;20.73;;
83127;SDS011;73148;50.988;11.034;2023-11-18T09:43:38;59.47;;;20.90;;
83127;SDS011;73148;50.988;11.034;2023-11-18T09:46:08;49.20;;;20.50;;
83127;SDS011;73148;50.988;11.034;2023-11-18T09:48:41;55.30;;;20.98;;
83127;SDS011;73148;50.988;11.034;2023-11-18T09:51:08;51.67;;;21.42;;
83127;SDS011;73148;50.988;11.034;2023-11-18T09:53:34;53.85;;;21.90;;
83127;SDS011;73148;50.988;11.034;2023-11-18T09:56:06;54.13;;;20.63;;
83127;SDS011;73148;50.988;11.034;2023-11-18T09:58:44;49.85;;;20.67;;
83127;SDS011;73148;50.988;11.034;2023-11-18T10:01:20;47.88;;;21.35;;
83127;SDS011;73148;50.988;11.034;2023-11-18T10:03:49;49.22;;;19.75;;
83127;SDS011;73148;50.988;11.034;2023-11-18T10:06:16;54.70;;;20.95;;
83127;SDS011;73148;50.988;11.034;2023-11-18T10:08:43;48.30;;;19.80;;
83127;SDS011;73148;50.988;11.034;2023-11-18T10:11:11;50.40;;;20.48;;
83127;SDS011;73148;50.988;11.034;2023-11-18T10:13:38;55.60;;;22.17;;
83127;SDS011;73148;50.988;11.034;2023-11-18T10:16:06;47.80;;;21.10;;
83127;SDS011;73148;50.988;11.034;2023-11-18T10:18:32;52.50;;;21.30;;
83127;SDS011;73148;50.988;11.034;2023-11-18T10:21:03;43.72;;;20.27;;
83127;SDS011;73148;50.988;11.034;2023-11-18T10:23:36;49.45;;;20.50;;
83127;SDS011;73148;50.988;11.034;2023-11-18T10:26:02;49.33;;;19.85;;
83127;SDS011;73148;50.988;11.034;2023-11-18T10:28:30;46.83;;;20.42;;
83127;SDS011;73148;50.988;11.034;2023-11-18T10:30:58;51.15;;;20.42;;
83127;SDS011;73148;50.988;11.034;2023-11-18T10:33:28;53.15;;;20.58;;
83127;SDS011;73148;50.988;11.034;2023-11-18T10:35:55;53.97;;;20.90;;
83127;SDS011;73148;50.988;11.034;2023-11-18T10:40:52;43.83;;;19.02;;
83127;SDS011;73148;50.988;11.034;2023-11-18T10:43:18;42.03;;;19.40;;
83127;SDS011;73148;50.988;11.034;2023-11-18T10:45:43;43.47;;;19.85;;
83127;SDS011;73148;50.988;11.034;2023-11-18T10:48:11;45.40;;;20.45;;
83127;SDS011;73148;50.988;11.034;2023-11-18T10:50:41;50.40;;;20.02;;
83127;SDS011;73148;50.988;11.034;2023-11-18T10:53:10;48.63;;;19.30;;
83127;SDS011;73148;50.988;11.034;2023-11-18T10:55:40;37.22;;;18.50;;
83127;SDS011;73148;50.988;11.034;2023-11-18T10:58:05;40.85;;;19.73;;
83127;SDS011;73148;50.988;11.034;2023-11-18T11:00:45;35.67;;;19.02;;
83127;SDS011;73148;50.988;11.034;2023-11-18T11:03:14;47.10;;;20.90;;
83127;SDS011;73148;50.988;11.034;2023-11-18T11:05:40;42.08;;;19.08;;
83127;SDS011;73148;50.988;11.034;2023-11-18T11:08:07;47.83;;;20.30;;
83127;SDS011;73148;50.988;11.034;2023-11-18T11:10:33;41.85;;;19.67;;
83127;SDS011;73148;50.988;11.034;2023-11-18T11:13:02;40.63;;;19.42;;
83127;SDS011;73148;50.988;11.034;2023-11-18T11:15:30;44.00;;;19.38;;
83127;SDS011;73148;50.988;11.034;2023-11-18T11:17:58;35.45;;;18.85;;
83127;SDS011;73148;50.988;11.034;2023-11-18T11:20:34;43.28;;;19.80;;
83127;SDS011;73148;50.988;11.034;2023-11-18T11:23:09;36.08;;;16.98;;
83127;SDS011;73148;50.988;11.034;2023-11-18T11:25:41;35.58;;;18.80;;
83127;SDS011;73148;50.988;11.034;2023-11-18T11:28:19;37.78;;;17.40;;
83127;SDS011;73148;50.988;11.034;2023-11-18T11:30:46;38.15;;;18.67;;
83127;SDS011;73148;50.988;11.034;2023-11-18T11:33:25;40.63;;;17.88;;
83127;SDS011;73148;50.988;11.034;2023-11-18T11:36:05;38.95;;;18.90;;
83127;SDS011;73148;50.988;11.034;2023-11-18T11:38:36;34.90;;;17.45;;
83127;SDS011;73148;50.988;11.034;2023-11-18T11:41:02;38.35;;;18.98;;
83127;SDS011;73148;50.988;11.034;2023-11-18T11:43:31;36.78;;;18.35;;
83127;SDS011;73148;50.988;11.034;2023-11-18T11:45:59;42.22;;;19.05;;
83127;SDS011;73148;50.988;11.034;2023-11-18T11:48:28;33.95;;;16.80;;
83127;SDS011;73148;50.988;11.034;2023-11-18T11:51:03;35.38;;;16.73;;
83127;SDS011;73148;50.988;11.034;2023-11-18T11:53:40;38.92;;;18.30;;
83127;SDS011;73148;50.988;11.034;2023-11-18T11:56:11;35.67;;;18.55;;
83127;SDS011;73148;50.988;11.034;2023-11-18T11:58:47;36.83;;;17.80;;
83127;SDS011;73148;50.988;11.034;2023-11-18T12:01:27;35.25;;;17.55;;
83127;SDS011;73148;50.988;11.034;2023-11-18T12:04:02;39.13;;;19.88;;
83127;SDS011;73148;50.988;11.034;2023-11-18T12:06:31;33.95;;;16.55;;
83127;SDS011;73148;50.988;11.034;2023-11-18T12:08:57;33.17;;;16.75;;
83127;SDS011;73148;50.988;11.034;2023-11-18T12:11:23;32.05;;;16.98;;
83127;SDS011;73148;50.988;11.034;2023-11-18T12:14:03;31.88;;;16.70;;
83127;SDS011;73148;50.988;11.034;2023-11-18T12:19:33;35.47;;;17.45;;
83127;SDS011;73148;50.988;11.034;2023-11-18T12:22:12;30.20;;;16.23;;
83127;SDS011;73148;50.988;11.034;2023-11-18T12:24:42;33.42;;;16.80;;
83127;SDS011;73148;50.988;11.034;2023-11-18T12:27:12;34.03;;;17.13;;
83127;SDS011;73148;50.988;11.034;2023-11-18T12:29:42;33.53;;;18.00;;
83127;SDS011;73148;50.988;11.034;2023-11-18T12:32:11;34.78;;;17.38;;
83127;SDS011;73148;50.988;11.034;2023-11-18T12:34:51;34.55;;;17.33;;
83127;SDS011;73148;50.988;11.034;2023-11-18T12:40:23;30.58;;;16.13;;
83127;SDS011;73148;50.988;11.034;2023-11-18T12:43:09;29.98;;;16.38;;
83127;SDS011;73148;50.988;11.034;2023-11-18T12:45:54;32.40;;;16.98;;
83127;SDS011;73148;50.988;11.034;2023-11-18T12:48:40;30.50;;;16.73;;
83127;SDS011;73148;50.988;11.034;2023-11-18T12:51:09;30.73;;;16.13;;
83127;SDS011;73148;50.988;11.034;2023-11-18T12:53:46;31.52;;;16.83;;
83127;SDS011;73148;50.988;11.034;2023-11-18T12:56:14;32.05;;;16.30;;
83127;SDS011;73148;50.988;11.034;2023-11-18T13:01:07;28.80;;;15.95;;
83127;SDS011;73148;50.988;11.034;2023-11-18T13:03:32;32.88;;;17.10;;
83127;SDS011;73148;50.988;11.034;2023-11-18T13:05:59;33.78;;;17.48;;
83127;SDS011;73148;50.988;11.034;2023-11-18T13:08:25;30.85;;;16.45;;
83127;SDS011;73148;50.988;11.034;2023-11-18T13:10:51;29.80;;;16.27;;
83127;SDS011;73148;50.988;11.034;2023-11-18T13:13:17;31.85;;;17.20;;
83127;SDS011;73148;50.988;11.034;2023-11-18T13:15:44;31.95;;;16.50;;
83127;SDS011;73148;50.988;11.034;2023-11-18T13:18:12;32.15;;;16.85;;
83127;SDS011;73148;50.988;11.034;2023-11-18T13:20:39;30.88;;;17.98;;
83127;SDS011;73148;50.988;11.034;2023-11-18T13:23:04;32.90;;;17.33;;
83127;SDS011;73148;50.988;11.034;2023-11-18T13:25:34;35.25;;;17.52;;
83127;SDS011;73148;50.988;11.034;2023-11-18T13:27:59;32.53;;;17.75;;
83127;SDS011;73148;50.988;11.034;2023-11-18T13:30:26;29.67;;;16.58;;
83127;SDS011;73148;50.988;11.034;2023-11-18T13:32:54;30.30;;;17.52;;
83127;SDS011;73148;50.988;11.034;2023-11-18T13:35:22;33.78;;;16.65;;
83127;SDS011;73148;50.988;11.034;2023-11-18T13:37:48;32.70;;;19.13;;
83127;SDS011;73148;50.988;11.034;2023-11-18T13:40:15;31.58;;;16.90;;
83127;SDS011;73148;50.988;11.034;2023-11-18T13:42:43;28.75;;;17.08;;
83127;SDS011;73148;50.988;11.034;2023-11-18T13:45:11;35.38;;;19.02;;
83127;SDS011;73148;50.988;11.034;2023-11-18T13:47:40;34.38;;;18.08;;
83127;SDS011;73148;50.988;11.034;2023-11-18T13:50:07;31.10;;;16.73;;
83127;SDS011;73148;50.988;11.034;2023-11-18T13:52:35;33.90;;;18.50;;
83127;SDS011;73148;50.988;11.034;2023-11-18T13:55:04;33.72;;;18.95;;
83127;SDS011;73148;50.988;11.034;2023-11-18T13:57:31;36.33;;;20.23;;
83127;SDS011;73148;50.988;11.034;2023-11-18T13:59:57;30.25;;;18.50;;
83127;SDS011;73148;50.988;11.034;2023-11-18T14:02:22;32.80;;;18.65;;
83127;SDS011;73148;50.988;11.034;2023-11-18T14:04:48;32.28;;;18.40;;
83127;SDS011;73148;50.988;11.034;2023-11-18T14:07:15;30.95;;;18.80;;
83127;SDS011;73148;50.988;11.034;2023-11-18T14:09:43;33.83;;;18.88;;
83127;SDS011;73148;50.988;11.034;2023-11-18T14:12:10;34.42;;;18.15;;
83127;SDS011;73148;50.988;11.034;2023-11-18T14:14:36;33.88;;;18.48;;
83127;SDS011;73148;50.988;11.034;2023-11-18T14:17:02;30.35;;;19.02;;
83127;SDS011;73148;50.988;11.034;2023-11-18T14:19:28;39.08;;;20.85;;
83127;SDS011;73148;50.988;11.034;2023-11-18T14:21:54;35.70;;;18.55;;
83127;SDS011;73148;50.988;11.034;2023-11-18T14:24:21;31.83;;;18.33;;
83127;SDS011;73148;50.988;11.034;2023-11-18T14:26:54;32.10;;;18.50;;
83127;SDS011;73148;50.988;11.034;2023-11-18T14:29:19;35.40;;;20.15;;
83127;SDS011;73148;50.988;11.034;2023-11-18T14:31:45;33.22;;;19.15;;
83127;SDS011;73148;50.988;11.034;2023-11-18T14:34:10;32.53;;;19.30;;
83127;SDS011;73148;50.988;11.034;2023-11-18T14:36:36;30.08;;;18.15;;
83127;SDS011;73148;50.988;11.034;2023-11-18T14:39:01;31.45;;;18.60;;